Time;durP1;ratioP1;P1;durP2;ratioP2;P2;SDS_P1;SDS_P2;PMS_P1;PMS_P2;Temp;Humidity;BMP_temperature;BMP_pressure;BME280_temperature;BME280_humidity;BME280_pressure;Samples;Min_cycle;Max_cycle;Signal;HPM_P1;HPM_P2
2023/03/30 00:00:51;;;;;;;0.70;0.70;;;;;;;5.21;100.00;98417.44;4897321;29;20048;-87
2023/03/30 00:03:21;;;;;;;0.70;0.70;;;;;;;5.20;100.00;98419.31;4913892;29;20060;-87
2023/03/30 00:05:55;;;;;;;0.80;0.80;;;;;;;5.21;100.00;98420.94;4913938;29;20067;-87
2023/03/30 00:08:27;;;;;;;0.70;0.70;;;;;;;5.05;100.00;98400.16;4913137;29;20099;-86
2023/03/30 00:11:15;;;;;;;0.80;0.80;;;;;;;5.12;100.00;98411.59;4913026;29;20111;-86
2023/03/30 00:13:43;;;;;;;0.70;0.70;;;;;;;4.93;100.00;98401.94;4914224;29;20052;-86
2023/03/30 00:16:12;;;;;;;0.70;0.70;;;;;;;4.93;100.00;98407.28;4899526;29;20060;-88
2023/03/30 00:18:40;;;;;;;0.70;0.70;;;;;;;4.94;100.00;98403.59;4919707;29;20056;-87
2023/03/30 00:21:08;;;;;;;0.70;0.70;;;;;;;5.01;100.00;98417.66;4921530;29;20044;-86
2023/03/30 00:23:37;;;;;;;0.70;0.70;;;;;;;4.91;100.00;98410.19;4904056;29;20052;-88
2023/03/30 00:26:05;;;;;;;0.70;0.70;;;;;;;4.96;100.00;98425.53;4915091;29;20144;-85
2023/03/30 00:28:33;;;;;;;0.60;0.60;;;;;;;4.82;100.00;98405.34;4917398;29;20067;-86
2023/03/30 00:31:00;;;;;;;0.70;0.70;;;;;;;4.73;100.00;98400.28;4917269;29;20139;-87
2023/03/30 00:33:28;;;;;;;0.70;0.70;;;;;;;4.85;100.00;98426.28;4917681;29;20435;-86
2023/03/30 00:36:11;;;;;;;0.70;0.70;;;;;;;4.80;100.00;98428.81;4919102;29;20076;-87
2023/03/30 00:38:39;;;;;;;0.70;0.70;;;;;;;4.76;100.00;98418.56;4907492;29;20147;-88
2023/03/30 00:41:06;;;;;;;0.80;0.80;;;;;;;4.76;100.00;98436.44;4888583;29;20408;-87
2023/03/30 00:43:35;;;;;;;0.70;0.70;;;;;;;4.57;100.00;98401.69;4921570;29;20508;-85
2023/03/30 00:46:01;;;;;;;0.70;0.70;;;;;;;4.67;100.00;98432.44;4904188;29;20048;-87
2023/03/30 00:48:31;;;;;;;0.80;0.80;;;;;;;4.72;100.00;98424.56;4903206;29;20048;-85
2023/03/30 00:51:01;;;;;;;0.70;0.70;;;;;;;4.69;99.79;98428.50;4898806;29;20075;-86
2023/03/30 00:53:32;;;;;;;0.70;0.70;;;;;;;4.65;99.57;98415.81;4898997;29;20052;-87
2023/03/30 00:56:01;;;;;;;0.70;0.70;;;;;;;4.59;99.69;98414.03;4883711;29;20475;-86
2023/03/30 00:58:28;;;;;;;0.70;0.70;;;;;;;4.64;99.06;98415.00;4916434;29;20500;-85
2023/03/30 01:00:57;;;;;;;0.80;0.80;;;;;;;4.64;98.72;98409.66;4915866;29;20052;-87
2023/03/30 01:03:31;;;;;;;0.70;0.70;;;;;;;4.46;98.69;98390.91;4914679;29;20044;-85
2023/03/30 01:06:00;;;;;;;0.80;0.80;;;;;;;4.49;98.74;98407.31;4914294;29;20104;-87
2023/03/30 01:08:31;;;;;;;0.80;0.80;;;;;;;4.60;98.42;98432.50;4899334;29;20108;-86
2023/03/30 01:11:02;;;;;;;0.70;0.70;;;;;;;4.57;98.07;98416.91;4914722;29;20057;-87
2023/03/30 01:13:32;;;;;;;0.70;0.70;;;;;;;4.52;97.92;98422.09;4868548;29;20419;-87
2023/03/30 01:16:14;;;;;;;0.70;0.70;;;;;;;4.54;97.42;98428.03;4916035;29;20054;-86
2023/03/30 01:19:00;;;;;;;0.70;0.70;;;;;;;4.52;97.31;98428.25;4915126;29;20405;-86
2023/03/30 01:21:48;;;;;;;0.70;0.70;;;;;;;4.47;97.09;98429.94;4916940;29;20285;-85
2023/03/30 01:24:27;;;;;;;0.80;0.80;;;;;;;4.47;97.34;98429.94;4870967;29;20065;-86
2023/03/30 01:27:29;;;;;;;0.80;0.80;;;;;;;4.44;97.38;98430.38;4857306;29;20062;-86
2023/03/30 01:30:21;;;;;;;0.80;0.80;;;;;;;4.43;97.33;98426.91;4857028;29;20057;-86
2023/03/30 01:33:00;;;;;;;0.80;0.80;;;;;;;4.34;97.42;98442.38;4855827;29;20069;-86
2023/03/30 01:35:56;;;;;;;0.70;0.70;;;;;;;4.38;97.63;98441.94;4856529;29;20054;-85
2023/03/30 01:38:33;;;;;;;0.80;0.80;;;;;;;4.36;97.70;98446.69;4813540;29;1293241;-86
2023/03/30 01:41:32;;;;;;;0.80;0.80;;;;;;;4.38;97.83;98449.94;4842778;29;20053;-85
2023/03/30 01:44:03;;;;;;;0.70;0.70;;;;;;;4.26;97.53;98449.84;4842354;29;20063;-86
2023/03/30 01:46:34;;;;;;;0.70;0.70;;;;;;;4.24;97.26;98450.06;4858183;29;20457;-86
2023/03/30 01:49:09;;;;;;;0.70;0.70;;;;;;;4.23;97.29;98461.78;4842390;29;20049;-86
2023/03/30 01:52:20;;;;;;;0.80;0.80;;;;;;;4.23;97.41;98459.13;4827791;29;20066;-84
2023/03/30 01:54:50;;;;;;;0.70;0.70;;;;;;;4.20;97.70;98464.88;4842695;29;20148;-85
2023/03/30 01:57:20;;;;;;;0.80;0.80;;;;;;;4.18;97.78;98464.28;4826681;29;20500;-86
2023/03/30 01:59:55;;;;;;;0.80;0.80;;;;;;;4.11;98.16;98461.66;4857254;29;20056;-86
2023/03/30 02:02:26;;;;;;;0.80;0.80;;;;;;;4.03;97.90;98461.91;4871868;29;20140;-86
2023/03/30 02:04:56;;;;;;;0.70;0.70;;;;;;;4.06;98.07;98456.16;4860788;29;20049;-86
2023/03/30 02:07:28;;;;;;;0.80;0.80;;;;;;;4.02;98.04;98456.78;4875623;29;20580;-86
2023/03/30 02:10:00;;;;;;;0.90;0.90;;;;;;;3.94;98.24;98462.38;4860312;29;20535;-86
2023/03/30 02:12:29;;;;;;;0.80;0.80;;;;;;;3.95;98.42;98475.53;4860608;29;20064;-86
2023/03/30 02:15:00;;;;;;;0.80;0.80;;;;;;;3.88;98.80;98467.56;4860263;29;20871;-85
2023/03/30 02:17:28;;;;;;;0.80;0.80;;;;;;;4.02;99.05;98480.81;4860114;29;20090;-85
2023/03/30 02:19:57;;;;;;;0.80;0.80;;;;;;;4.02;99.12;98488.81;4859948;29;20144;-85
2023/03/30 02:22:25;;;;;;;0.80;0.80;;;;;;;4.02;99.33;98491.50;4875583;29;20437;-85
2023/03/30 02:24:54;;;;;;;0.70;0.70;;;;;;;3.90;98.74;98472.69;4875709;29;20057;-86
2023/03/30 02:27:22;;;;;;;0.80;0.80;;;;;;;3.96;98.38;98492.38;4875685;29;20117;-85
2023/03/30 02:29:49;;;;;;;0.80;0.80;;;;;;;3.87;98.60;98489.97;4876548;29;20157;-86
2023/03/30 02:32:21;;;;;;;0.70;0.70;;;;;;;3.89;98.68;98490.53;4862651;29;20132;-85
2023/03/30 02:35:08;;;;;;;0.80;0.80;;;;;;;3.88;98.54;98499.59;4905210;29;20056;-85
2023/03/30 02:37:41;;;;;;;0.77;0.77;;;;;;;3.87;98.81;98494.44;4920765;29;20083;-85
2023/03/30 02:40:23;;;;;;;0.80;0.80;;;;;;;3.69;98.42;98489.81;4921752;29;20139;-85
2023/03/30 02:43:32;;;;;;;0.80;0.80;;;;;;;3.67;98.74;98492.72;4904111;29;20056;-86
2023/03/30 02:46:08;;;;;;;0.80;0.80;;;;;;;3.66;99.04;98495.59;4876679;29;20059;-85
2023/03/30 02:48:44;;;;;;;0.88;0.88;;;;;;;3.60;99.12;98504.47;4913574;29;20062;-84
2023/03/30 02:51:39;;;;;;;0.80;0.80;;;;;;;3.66;99.38;98493.72;4913812;29;20052;-85
2023/03/30 02:54:28;;;;;;;0.80;0.80;;;;;;;3.60;99.57;98480.44;4914059;29;20880;-85
2023/03/30 02:57:33;;;;;;;0.80;0.80;;;;;;;3.67;99.42;98490.06;4898168;29;20495;-85
2023/03/30 03:00:34;;;;;;;0.90;0.90;;;;;;;3.58;98.69;98482.50;4912431;29;20088;-86
2023/03/30 03:03:07;;;;;;;0.80;0.80;;;;;;;3.57;98.90;98476.34;4898410;29;20059;-86
2023/03/30 03:05:35;;;;;;;0.80;0.80;;;;;;;3.67;98.69;98498.06;4910319;29;20127;-85
2023/03/30 03:08:08;;;;;;;0.90;0.90;;;;;;;3.66;98.28;98500.94;4902374;29;20048;-84
2023/03/30 03:10:35;;;;;;;0.90;0.90;;;;;;;3.65;98.49;98496.63;4897976;29;20055;-86
2023/03/30 03:13:04;;;;;;;0.85;0.85;;;;;;;3.60;98.48;98491.94;4897544;29;20048;-86
2023/03/30 03:15:31;;;;;;;0.70;0.70;;;;;;;3.58;98.26;98493.16;4897706;29;20123;-86
2023/03/30 03:18:06;;;;;;;0.80;0.80;;;;;;;3.51;97.96;98503.84;4898293;29;20044;-86
2023/03/30 03:20:35;;;;;;;0.80;0.80;;;;;;;3.55;98.42;98490.94;4898052;29;20075;-85
2023/03/30 03:23:03;;;;;;;0.70;0.70;;;;;;;3.46;98.34;98495.66;4913314;29;20613;-86
2023/03/30 03:25:38;;;;;;;0.80;0.80;;;;;;;3.43;98.67;98510.25;4897990;29;20048;-86
2023/03/30 03:28:06;;;;;;;0.80;0.80;;;;;;;3.29;99.05;98492.63;4897974;29;20040;-85
2023/03/30 03:30:40;;;;;;;0.80;0.80;;;;;;;3.33;99.25;98496.53;4882162;29;20060;-86
2023/03/30 03:33:13;;;;;;;0.85;0.85;;;;;;;3.35;99.73;98513.16;4912908;29;20144;-86
2023/03/30 03:35:46;;;;;;;0.80;0.80;;;;;;;3.28;99.79;98507.00;4897480;29;20052;-85
2023/03/30 03:38:15;;;;;;;0.70;0.70;;;;;;;3.33;100.00;98514.38;4913047;29;20527;-86
2023/03/30 03:40:43;;;;;;;0.90;0.90;;;;;;;3.31;100.00;98511.91;4879244;29;20143;-86
2023/03/30 03:43:10;;;;;;;0.90;0.90;;;;;;;3.26;100.00;98509.06;4878384;29;20226;-86
2023/03/30 03:45:37;;;;;;;0.80;0.80;;;;;;;3.39;100.00;98524.22;4879098;29;20072;-86
2023/03/30 03:48:04;;;;;;;0.85;0.85;;;;;;;3.41;100.00;98530.97;4895130;29;20408;-87
2023/03/30 03:50:53;;;;;;;0.80;0.80;;;;;;;3.41;100.00;98532.81;4894714;29;20060;-86
2023/03/30 03:53:21;;;;;;;0.90;0.90;;;;;;;3.43;100.00;98533.44;4893711;29;20139;-87
2023/03/30 03:55:50;;;;;;;0.80;0.80;;;;;;;3.44;100.00;98541.25;4879176;29;20428;-87
2023/03/30 03:58:18;;;;;;;0.80;0.80;;;;;;;3.43;100.00;98539.59;4878707;29;20052;-87
2023/03/30 04:00:45;;;;;;;0.73;0.73;;;;;;;3.35;100.00;98529.16;4902278;29;20048;-87
2023/03/30 04:03:12;;;;;;;0.88;0.88;;;;;;;3.28;100.00;98532.88;4898891;29;20048;-86
2023/03/30 04:05:40;;;;;;;0.80;0.80;;;;;;;3.40;100.00;98547.22;4884329;29;20063;-88
2023/03/30 04:08:09;;;;;;;0.88;0.88;;;;;;;3.31;100.00;98538.59;4884700;29;20055;-86
2023/03/30 04:10:39;;;;;;;0.80;0.80;;;;;;;3.24;100.00;98527.13;4896987;29;20083;-86
2023/03/30 04:13:18;;;;;;;0.90;0.90;;;;;;;3.42;100.00;98561.16;4908333;29;20066;-85
2023/03/30 04:16:11;;;;;;;0.70;0.70;;;;;;;3.43;100.00;98549.44;4903664;29;20072;-88
2023/03/30 04:18:46;;;;;;;0.90;0.90;;;;;;;3.36;99.54;98543.31;4899006;29;20486;-86
2023/03/30 04:21:28;;;;;;;0.80;0.80;;;;;;;3.40;99.40;98542.69;4886307;29;20107;-86
2023/03/30 04:24:28;;;;;;;0.80;0.80;;;;;;;3.52;99.12;98555.38;4890293;29;20120;-88
2023/03/30 04:27:15;;;;;;;0.80;0.80;;;;;;;3.55;99.06;98550.44;4908036;29;20051;-84
2023/03/30 04:29:57;;;;;;;0.90;0.90;;;;;;;3.64;99.05;98559.03;4902589;29;20104;-86
2023/03/30 04:32:53;;;;;;;0.80;0.80;;;;;;;3.58;99.03;98549.19;4870456;29;20059;-88
2023/03/30 04:35:49;;;;;;;0.90;0.90;;;;;;;3.63;98.76;98552.88;4890814;29;20173;-88
2023/03/30 04:38:59;;;;;;;0.70;0.70;;;;;;;3.65;97.99;98558.81;4837878;29;20202;-90
2023/03/30 04:41:46;;;;;;;0.80;0.80;;;;;;;3.55;96.94;98552.31;4850648;29;20061;-91
2023/03/30 04:44:32;;;;;;;0.80;0.80;;;;;;;3.37;95.62;98532.44;4853641;29;20057;-87
2023/03/30 04:47:23;;;;;;;0.90;0.90;;;;;;;3.35;95.25;98534.50;4861878;29;20060;-87
2023/03/30 04:50:09;;;;;;;0.90;0.90;;;;;;;3.45;93.95;98537.53;4867860;29;20071;-86
2023/03/30 04:52:55;;;;;;;0.90;0.90;;;;;;;3.43;93.50;98536.94;4855666;29;20065;-88
2023/03/30 04:55:57;;;;;;;0.90;0.90;;;;;;;3.37;92.18;98537.78;4853872;29;20050;-86
2023/03/30 04:58:45;;;;;;;0.80;0.80;;;;;;;3.18;92.27;98512.78;4822179;29;20058;-84
2023/03/30 05:01:24;;;;;;;1.00;1.00;;;;;;;3.25;92.59;98526.09;4514897;29;10000408;-87
2023/03/30 05:04:07;;;;;;;0.90;0.90;;;;;;;3.39;92.65;98527.72;4852785;29;20556;-86
2023/03/30 05:06:53;;;;;;;0.90;0.90;;;;;;;3.24;92.77;98511.13;4845483;29;20140;-88
2023/03/30 05:09:37;;;;;;;0.95;0.95;;;;;;;3.35;93.14;98518.50;4831647;29;20051;-89
2023/03/30 05:12:30;;;;;;;0.90;0.90;;;;;;;3.38;93.25;98550.06;4851863;29;20134;-86
2023/03/30 05:15:16;;;;;;;0.80;0.80;;;;;;;3.37;93.74;98543.09;4904188;29;20146;-87
2023/03/30 05:18:10;;;;;;;0.90;0.90;;;;;;;3.42;93.74;98545.97;4887739;29;20519;-89
2023/03/30 05:20:43;;;;;;;0.80;0.80;;;;;;;3.39;93.06;98527.72;4901565;29;20436;-89
2023/03/30 05:23:29;;;;;;;0.90;0.90;;;;;;;3.47;92.74;98530.16;4903434;29;20515;-88
2023/03/30 05:26:07;;;;;;;0.80;0.80;;;;;;;3.71;92.37;98553.69;4885317;29;20048;-89
2023/03/30 05:28:51;;;;;;;0.80;0.80;;;;;;;3.73;92.04;98547.09;4885111;29;20427;-90
2023/03/30 05:31:30;;;;;;;0.90;0.90;;;;;;;3.66;90.94;98530.28;4885470;29;20172;-88
2023/03/30 05:34:03;;;;;;;0.90;0.90;;;;;;;3.81;90.07;98565.53;4916647;29;20119;-89
2023/03/30 05:36:51;;;;;;;0.90;0.90;;;;;;;3.78;89.58;98571.31;4896485;29;20150;-88
2023/03/30 05:39:41;;;;;;;0.90;0.90;;;;;;;3.68;88.95;98582.41;4905775;29;20130;-90
2023/03/30 05:42:35;;;;;;;0.80;0.80;;;;;;;3.41;88.39;98560.31;4920184;29;20064;-88
2023/03/30 05:45:28;;;;;;;0.90;0.90;;;;;;;3.48;88.54;98571.78;4904488;29;20052;-88
2023/03/30 05:48:09;;;;;;;0.80;0.80;;;;;;;3.45;88.47;98566.88;4906091;29;20052;-87
2023/03/30 05:50:46;;;;;;;0.90;0.90;;;;;;;3.50;89.06;98568.13;4901032;29;20135;-87
2023/03/30 05:53:36;;;;;;;0.90;0.90;;;;;;;3.56;88.56;98593.94;4915431;29;20052;-86
2023/03/30 05:56:22;;;;;;;0.90;0.90;;;;;;;3.47;88.96;98594.19;4899292;29;20062;-88
2023/03/30 05:59:15;;;;;;;0.90;0.90;;;;;;;3.33;88.58;98568.56;4899285;29;20052;-88
2023/03/30 06:02:01;;;;;;;0.80;0.80;;;;;;;3.39;88.95;98582.91;4887040;29;20064;-88
2023/03/30 06:04:30;;;;;;;0.90;0.90;;;;;;;3.66;89.27;98599.66;4901957;29;20048;-88
2023/03/30 06:06:59;;;;;;;0.90;0.90;;;;;;;3.84;88.68;98602.47;4887582;29;20427;-88
2023/03/30 06:09:26;;;;;;;0.90;0.90;;;;;;;4.00;87.61;98608.38;4921605;29;20472;-87
2023/03/30 06:11:56;;;;;;;0.80;0.80;;;;;;;4.01;85.55;98591.34;4905000;29;20111;-87
2023/03/30 06:14:23;;;;;;;0.90;0.90;;;;;;;4.13;85.15;98584.31;4897547;29;20466;-87
2023/03/30 06:17:14;;;;;;;0.90;0.90;;;;;;;4.23;83.85;98603.34;4915829;29;20078;-89
2023/03/30 06:19:43;;;;;;;0.90;0.90;;;;;;;4.31;83.43;98613.78;4895088;29;20048;-86
2023/03/30 06:22:11;;;;;;;0.90;0.90;;;;;;;4.31;82.97;98602.28;4916371;29;20056;-86
2023/03/30 06:24:44;;;;;;;0.90;0.90;;;;;;;4.16;82.43;98581.19;4916246;29;20467;-86
2023/03/30 06:27:12;;;;;;;0.80;0.80;;;;;;;4.28;82.07;98587.50;4914268;29;20083;-88
2023/03/30 06:29:40;;;;;;;0.90;0.90;;;;;;;4.27;81.90;98575.16;4928714;29;20135;-86
2023/03/30 06:32:07;;;;;;;0.90;0.90;;;;;;;4.40;81.67;98614.34;4924031;29;20055;-86
2023/03/30 06:34:58;;;;;;;0.80;0.80;;;;;;;4.33;81.44;98595.69;4838541;29;20208;-87
2023/03/30 06:37:30;;;;;;;0.90;0.90;;;;;;;4.27;81.25;98598.41;4824042;29;20108;-87
2023/03/30 06:39:58;;;;;;;0.90;0.90;;;;;;;4.29;81.25;98594.47;4809174;29;20054;-88
2023/03/30 06:42:26;;;;;;;0.80;0.80;;;;;;;4.46;80.62;98572.63;4808948;29;20057;-88
2023/03/30 06:45:03;;;;;;;0.90;0.90;;;;;;;4.65;79.51;98592.22;4823405;29;20054;-90
2023/03/30 06:47:30;;;;;;;0.90;0.90;;;;;;;4.81;79.76;98591.69;4808581;29;20407;-86
2023/03/30 06:49:58;;;;;;;0.90;0.90;;;;;;;4.88;79.39;98578.25;4825098;29;20054;-87
2023/03/30 06:52:37;;;;;;;0.90;0.90;;;;;;;5.29;78.86;98585.72;4838147;29;20082;-88
2023/03/30 06:55:05;;;;;;;0.90;0.90;;;;;;;5.52;77.79;98587.78;4801970;29;20060;-88
2023/03/30 06:57:32;;;;;;;0.80;0.80;;;;;;;5.70;77.40;98594.16;4841762;29;20050;-89
2023/03/30 07:00:05;;;;;;;0.90;0.90;;;;;;;5.36;75.80;98573.09;4824962;29;20575;-86
2023/03/30 07:02:35;;;;;;;0.90;0.90;;;;;;;5.54;75.98;98591.00;4838612;29;20128;-87
2023/03/30 07:05:14;;;;;;;0.80;0.80;;;;;;;5.27;76.07;98584.31;4827776;29;20065;-86
2023/03/30 07:08:06;;;;;;;0.80;0.80;;;;;;;5.08;76.33;98586.13;4783537;29;20733;-88
2023/03/30 07:10:36;;;;;;;0.77;0.77;;;;;;;4.92;76.81;98590.97;4806399;29;20050;-89
2023/03/30 07:13:07;;;;;;;0.80;0.80;;;;;;;4.82;74.84;98585.31;4894143;29;20407;-88
2023/03/30 07:15:38;;;;;;;0.80;0.80;;;;;;;4.72;74.40;98593.81;4914415;29;20055;-89
2023/03/30 07:18:05;;;;;;;0.80;0.80;;;;;;;4.65;73.32;98601.03;4910043;29;20131;-90
2023/03/30 07:20:34;;;;;;;0.80;0.80;;;;;;;4.38;73.55;98604.91;4912754;29;20048;-88
2023/03/30 07:23:19;;;;;;;0.80;0.80;;;;;;;4.31;73.90;98591.59;4897138;29;20066;-88
2023/03/30 07:25:50;;;;;;;0.80;0.80;;;;;;;4.26;73.75;98586.91;4900626;29;20472;-86
2023/03/30 07:28:39;;;;;;;0.80;0.80;;;;;;;4.43;74.11;98589.06;4904408;29;20059;-87
2023/03/30 07:31:08;;;;;;;0.85;0.85;;;;;;;4.55;74.28;98600.69;4917345;29;20048;-88
2023/03/30 07:33:39;;;;;;;0.82;0.82;;;;;;;4.50;74.07;98587.97;4914676;29;20131;-87
2023/03/30 07:36:12;;;;;;;0.80;0.80;;;;;;;4.48;73.86;98598.09;4901318;29;20112;-87
2023/03/30 07:38:45;;;;;;;0.80;0.80;;;;;;;4.43;73.76;98575.69;4917559;29;20055;-87
2023/03/30 07:41:15;;;;;;;0.90;0.90;;;;;;;4.57;73.84;98577.25;4917880;29;20493;-86
2023/03/30 07:43:45;;;;;;;0.85;0.85;;;;;;;4.60;73.62;98582.16;4886896;29;20074;-86
2023/03/30 07:46:12;;;;;;;0.80;0.80;;;;;;;4.70;73.58;98590.53;4903855;29;20417;-87
2023/03/30 07:48:44;;;;;;;0.80;0.80;;;;;;;4.85;73.57;98594.75;4888549;29;20530;-90
2023/03/30 07:51:12;;;;;;;0.80;0.80;;;;;;;4.96;73.36;98602.91;4894126;29;20056;-92
2023/03/30 07:54:04;;;;;;;0.80;0.80;;;;;;;4.86;73.09;98593.69;4908075;29;20052;-90
2023/03/30 07:56:51;;;;;;;0.80;0.80;;;;;;;4.83;72.91;98613.66;4923986;29;20048;-90
2023/03/30 07:59:21;;;;;;;0.80;0.80;;;;;;;4.91;72.97;98607.22;4929990;29;20051;-89
2023/03/30 08:01:53;;;;;;;0.90;0.90;;;;;;;5.09;72.00;98601.13;4922911;29;20059;-89
2023/03/30 08:04:43;;;;;;;0.90;0.90;;;;;;;5.19;71.26;98604.13;4907720;29;20058;-90
2023/03/30 08:07:12;;;;;;;0.80;0.80;;;;;;;5.04;70.64;98607.16;4909003;29;20046;-89
2023/03/30 08:09:39;;;;;;;0.90;0.90;;;;;;;4.95;70.37;98603.09;4922879;29;20487;-90
2023/03/30 08:12:06;;;;;;;0.80;0.80;;;;;;;4.96;70.13;98621.63;4925674;29;20119;-90
2023/03/30 08:14:33;;;;;;;0.90;0.90;;;;;;;4.76;70.23;98615.56;4939043;29;20211;-89
2023/03/30 08:17:02;;;;;;;0.80;0.80;;;;;;;4.71;70.98;98608.22;4926144;29;20519;-90
2023/03/30 08:19:35;;;;;;;0.80;0.80;;;;;;;4.67;71.39;98617.69;4923650;29;20056;-90
2023/03/30 08:22:02;;;;;;;0.80;0.80;;;;;;;4.63;72.55;98619.13;4908545;29;20056;-90
2023/03/30 08:24:30;;;;;;;0.75;0.75;;;;;;;4.25;73.75;98619.16;4907688;29;20051;-88
2023/03/30 08:26:58;;;;;;;0.80;0.80;;;;;;;4.14;75.34;98617.97;4948465;29;20055;-90
2023/03/30 08:29:25;;;;;;;0.80;0.80;;;;;;;3.92;76.16;98614.78;4935970;29;20052;-90
2023/03/30 08:31:52;;;;;;;0.90;0.90;;;;;;;4.07;76.58;98633.22;4911336;29;20511;-90
2023/03/30 08:34:19;;;;;;;0.70;0.70;;;;;;;3.90;77.24;98623.00;4925929;29;20115;-89
2023/03/30 08:36:46;;;;;;;0.80;0.80;;;;;;;3.96;77.27;98634.69;4889870;29;20055;-90
2023/03/30 08:39:14;;;;;;;0.85;0.85;;;;;;;4.04;77.19;98636.31;4905470;29;20569;-89
2023/03/30 08:42:00;;;;;;;0.80;0.80;;;;;;;4.02;77.54;98635.69;4919700;29;20510;-88
2023/03/30 08:44:35;;;;;;;0.77;0.77;;;;;;;3.95;78.10;98637.56;4920133;29;20082;-90
2023/03/30 08:47:07;;;;;;;0.90;0.90;;;;;;;4.03;77.84;98637.34;4935866;29;20047;-89
2023/03/30 08:49:41;;;;;;;0.90;0.90;;;;;;;4.02;77.59;98619.66;4919891;29;20459;-90
2023/03/30 08:52:13;;;;;;;0.90;0.90;;;;;;;4.16;77.67;98631.13;4919408;29;20142;-90
2023/03/30 08:54:41;;;;;;;0.90;0.90;;;;;;;4.13;77.17;98605.66;4904948;29;20533;-89
2023/03/30 08:57:30;;;;;;;0.80;0.80;;;;;;;4.18;77.11;98623.69;4935312;29;20058;-91
2023/03/30 09:00:16;;;;;;;0.88;0.88;;;;;;;4.25;77.24;98621.81;4920361;29;20102;-89
2023/03/30 09:02:46;;;;;;;0.90;0.90;;;;;;;4.17;77.37;98617.53;4921264;29;20106;-89
2023/03/30 09:05:24;;;;;;;0.80;0.80;;;;;;;4.10;77.18;98612.25;4904485;29;20067;-89
2023/03/30 09:07:57;;;;;;;0.90;0.90;;;;;;;4.17;77.64;98596.19;4919506;29;20051;-89
2023/03/30 09:10:26;;;;;;;0.80;0.80;;;;;;;4.44;77.34;98623.59;4920561;29;20127;-91
2023/03/30 09:12:56;;;;;;;0.90;0.90;;;;;;;4.43;77.39;98626.47;4888497;29;20135;-89
2023/03/30 09:15:35;;;;;;;0.90;0.90;;;;;;;4.39;76.79;98615.41;4920790;29;20055;-92
2023/03/30 09:18:13;;;;;;;0.90;0.90;;;;;;;4.54;76.67;98631.97;4919161;29;20467;-90
2023/03/30 09:20:41;;;;;;;0.90;0.90;;;;;;;4.56;76.18;98613.84;4899579;29;20068;-88
2023/03/30 09:27:04;;;;;;;0.90;0.90;;;;;;;4.71;74.83;98632.28;4901770;29;20079;-88
2023/03/30 09:29:57;;;;;;;0.82;0.82;;;;;;;4.51;75.00;98632.38;4886682;29;20470;-89
2023/03/30 09:32:32;;;;;;;0.80;0.80;;;;;;;4.62;75.54;98652.25;4913452;29;20063;-93
2023/03/30 09:35:37;;;;;;;0.80;0.80;;;;;;;4.60;75.32;98638.28;4886173;29;20167;-93
2023/03/30 09:38:10;;;;;;;0.90;0.90;;;;;;;4.55;75.54;98633.59;4822538;29;20064;-92
2023/03/30 09:40:49;;;;;;;0.80;0.80;;;;;;;4.61;75.63;98666.69;4828699;29;20137;-89
2023/03/30 09:43:42;;;;;;;0.80;0.80;;;;;;;4.42;76.34;98654.22;4823854;29;20511;-90
2023/03/30 09:46:14;;;;;;;0.80;0.80;;;;;;;4.03;77.58;98632.00;4816348;29;20062;-92
2023/03/30 09:49:15;;;;;;;0.85;0.85;;;;;;;3.93;79.21;98661.81;4856867;29;20118;-94
2023/03/30 09:51:55;;;;;;;0.90;0.90;;;;;;;3.69;80.67;98641.94;4848362;29;20121;-93
2023/03/30 09:54:22;;;;;;;0.90;0.90;;;;;;;3.73;81.09;98637.84;4850814;29;20061;-92
2023/03/30 09:56:53;;;;;;;0.80;0.80;;;;;;;4.09;80.90;98679.22;4824624;29;20046;-89
2023/03/30 09:59:37;;;;;;;0.90;0.90;;;;;;;4.01;80.88;98685.63;4837654;29;20065;-91
2023/03/30 10:02:16;;;;;;;0.90;0.90;;;;;;;3.93;81.27;98691.19;4806078;29;20077;-89
2023/03/30 10:04:56;;;;;;;0.90;0.90;;;;;;;3.72;81.72;98667.41;4831487;29;20178;-91
2023/03/30 10:07:38;;;;;;;0.80;0.80;;;;;;;3.57;81.37;98664.97;4841585;29;20054;-93
2023/03/30 10:10:21;;;;;;;0.90;0.90;;;;;;;3.43;81.60;98677.50;4835116;29;20081;-88
2023/03/30 10:12:50;;;;;;;0.90;0.90;;;;;;;3.32;81.37;98656.75;4851663;29;20053;-92
2023/03/30 10:15:18;;;;;;;0.90;0.90;;;;;;;3.31;80.76;98666.63;4879208;29;20052;-90
2023/03/30 10:17:46;;;;;;;0.88;0.88;;;;;;;3.41;80.69;98693.69;4924956;29;20571;-90
2023/03/30 10:20:33;;;;;;;0.90;0.90;;;;;;;3.26;79.72;98664.56;4901836;29;20613;-90
2023/03/30 10:23:10;;;;;;;0.88;0.88;;;;;;;3.58;79.49;98691.44;4925445;29;20064;-88
2023/03/30 10:25:42;;;;;;;0.90;0.90;;;;;;;3.62;78.45;98689.16;4913174;29;20133;-91
2023/03/30 10:28:16;;;;;;;0.90;0.90;;;;;;;3.51;78.16;98665.78;4904616;29;20136;-91
2023/03/30 10:30:53;;;;;;;0.90;0.90;;;;;;;3.84;76.79;98700.44;4916773;29;20130;-92
2023/03/30 10:33:21;;;;;;;0.90;0.90;;;;;;;3.82;76.28;98697.16;4931097;29;20070;-91
2023/03/30 10:35:55;;;;;;;0.90;0.90;;;;;;;3.68;75.83;98688.34;4901138;29;20142;-91
2023/03/30 10:38:34;;;;;;;0.80;0.80;;;;;;;3.91;75.69;98698.56;4889013;29;20055;-91
2023/03/30 10:41:11;;;;;;;0.90;0.90;;;;;;;3.89;74.71;98674.75;4886740;29;20142;-93
2023/03/30 10:43:40;;;;;;;0.90;0.90;;;;;;;3.93;74.60;98704.53;4885893;29;20059;-90
2023/03/30 10:46:14;;;;;;;0.90;0.90;;;;;;;3.99;74.31;98692.19;4882945;29;20138;-89
2023/03/30 10:49:12;;;;;;;0.80;0.80;;;;;;;3.93;73.90;98709.06;4898559;29;20076;-90
2023/03/30 10:52:09;;;;;;;0.90;0.90;;;;;;;3.72;74.59;98708.25;4893939;29;20058;-90
2023/03/30 10:54:50;;;;;;;0.80;0.80;;;;;;;3.48;75.34;98696.38;4880866;29;20063;-90
2023/03/30 10:57:29;;;;;;;0.80;0.80;;;;;;;3.36;76.01;98687.34;4926823;29;20056;-89
2023/03/30 11:00:32;;;;;;;0.90;0.90;;;;;;;3.30;75.87;98675.66;4922724;29;20048;-90
2023/03/30 11:03:28;;;;;;;0.90;0.90;;;;;;;3.53;75.98;98703.78;4934240;29;20162;-89
2023/03/30 11:05:59;;;;;;;0.88;0.88;;;;;;;3.35;75.58;98685.72;4920343;29;20517;-91
2023/03/30 11:08:31;;;;;;;0.90;0.90;;;;;;;3.30;75.69;98691.66;4888908;29;20044;-90
2023/03/30 11:11:21;;;;;;;0.90;0.90;;;;;;;3.22;75.40;98684.69;4904011;29;20463;-90
2023/03/30 11:14:00;;;;;;;0.90;0.90;;;;;;;3.20;75.43;98667.25;4918654;29;20048;-90
2023/03/30 11:16:53;;;;;;;0.90;0.90;;;;;;;3.38;74.83;98672.78;4923595;29;20456;-91
2023/03/30 11:19:58;;;;;;;0.90;0.90;;;;;;;3.75;74.02;98683.84;4914703;29;20082;-90
2023/03/30 11:22:50;;;;;;;0.90;0.90;;;;;;;3.46;73.67;98687.75;4905960;29;20048;-91
2023/03/30 11:25:30;;;;;;;0.90;0.90;;;;;;;3.15;74.57;98670.53;4905316;29;20044;-91
2023/03/30 11:28:19;;;;;;;0.80;0.80;;;;;;;3.30;74.25;98702.34;4904474;29;20166;-92
2023/03/30 11:30:48;;;;;;;0.90;0.90;;;;;;;3.25;74.30;98683.47;4919178;29;20051;-91
2023/03/30 11:33:35;;;;;;;0.90;0.90;;;;;;;3.78;73.51;98704.78;4904843;29;20099;-91
2023/03/30 11:36:33;;;;;;;0.90;0.90;;;;;;;3.82;72.04;98675.78;4907778;29;20079;-93
2023/03/30 11:39:03;;;;;;;0.90;0.90;;;;;;;3.57;71.62;98680.97;4843804;29;20066;-90
2023/03/30 11:41:49;;;;;;;0.90;0.90;;;;;;;3.39;72.11;98687.78;4846108;29;20113;-90
2023/03/30 11:44:30;;;;;;;0.90;0.90;;;;;;;3.34;72.24;98686.72;4832051;29;20061;-91
2023/03/30 11:47:34;;;;;;;0.90;0.90;;;;;;;3.24;73.22;98698.66;4821102;29;20237;-92
2023/03/30 11:50:17;;;;;;;0.90;0.90;;;;;;;3.07;73.70;98669.91;4760010;30;20087;-93
2023/03/30 11:52:59;;;;;;;0.80;0.80;;;;;;;3.26;73.74;98696.56;4754258;30;20058;-91
2023/03/30 11:55:44;;;;;;;0.88;0.88;;;;;;;3.00;74.72;98694.72;4771611;30;20097;-91
2023/03/30 11:58:38;;;;;;;0.90;0.90;;;;;;;2.76;75.56;98677.47;4755368;30;20062;-91
2023/03/30 12:01:27;;;;;;;0.80;0.80;;;;;;;2.83;76.57;98696.13;4775696;30;20056;-89
2023/03/30 12:04:11;;;;;;;0.90;0.90;;;;;;;2.90;76.44;98691.63;4786776;30;20504;-91
2023/03/30 12:06:51;;;;;;;0.90;0.90;;;;;;;2.93;77.17;98701.06;4762400;30;20095;-93
2023/03/30 12:09:33;;;;;;;0.90;0.90;;;;;;;2.75;77.04;98677.66;4783351;30;20064;-92
2023/03/30 12:12:14;;;;;;;0.90;0.90;;;;;;;2.95;77.18;98694.50;4753568;30;20077;-91
2023/03/30 12:15:01;;;;;;;0.88;0.88;;;;;;;2.62;77.05;98683.78;4767513;29;20061;-91
2023/03/30 12:17:44;;;;;;;0.95;0.95;;;;;;;2.63;77.48;98701.41;4845857;29;20060;-92
2023/03/30 12:20:43;;;;;;;0.90;0.90;;;;;;;2.59;78.01;98695.66;4839015;29;20552;-90
2023/03/30 12:23:16;;;;;;;0.80;0.80;;;;;;;2.65;77.79;98704.69;4860028;29;20532;-90
2023/03/30 12:26:00;;;;;;;0.90;0.90;;;;;;;2.44;78.13;98696.84;4876639;29;20048;-91
2023/03/30 12:28:45;;;;;;;0.88;0.88;;;;;;;2.27;78.93;98688.38;4872679;29;20052;-90
2023/03/30 12:32:12;;;;;;;0.90;0.90;;;;;;;2.34;79.25;98707.88;4914713;29;20052;-89
2023/03/30 12:34:43;;;;;;;1.00;1.00;;;;;;;2.17;79.46;98670.09;4872910;29;20133;-90